Aérodrome :
LOGIN :

S'inscrire | Disclaimer

   EN    FR    IT 

 










Légende :    VFR   VFR Marginal   IFR   IFR Intensif   IFR Très Intensif
Visi : 
Plafond : 
>= 8 km
>= 3000ft
5 à 8 km
1000 à 3000 ft
1500m à 5 km
500 à 1000 ft
800 à 1500m
200 à 500 ft
< 800m
< 200 ft
Symboles :   Orages  Brouillard  Fortes neiges  Fortes précipitations  Vent > 20 kt
SIGMETs :   Divers  Orages  Givrage  Turbulence  Onde Orograph.  Cendres Volcan.







- Altitude de l'aérodrome : 245 ft
- Code IATA : BIQ
- Voir les cartes d'approche


LFBZ - Biarritz

DERNIER METAR :
  • 170030Z AUTO 22004KT 190V250 9999 NCD 19/18 Q1019 TEMPO BKN003

METARs EXPIRÉS :
  • 170000Z AUTO 24003KT 200V270 CAVOK 19/18 Q1019 NOSIG
  • 162330Z AUTO 27003KT 230V290 CAVOK 19/18 Q1019 TEMPO BKN003
  • 162300Z AUTO 27004KT CAVOK 19/18 Q1019 TEMPO BKN003
  • 162230Z AUTO /////KT CAVOK 19/18 Q1019
  • 162200Z AUTO 25003KT 210V280 CAVOK 20/18 Q1019 TEMPO BKN003
  • 162130Z AUTO 25003KT CAVOK 20/18 Q1019 TEMPO BKN003

TAF TAF LFBZ
Valide du 17 à 00h jusqu'au 18 à 00h UTC


162300Z 1700/1724 27004KT CAVOK
PROB30 1702/1706 BKN003
Pas de NOTAMs connus pour ce terrain.



MET'MAP, la Météo Aéronautique d'un coup d'oeil ! - Copyright ORBIFLY Décembre 2007 - Disclaimer

ORBIFLY MET'MAP TEAM :

Programmation & Développement : Alexandra Zaïnal
Conception & Développement : Baudouin d'Aumeries
Co-Programmation & Développement : Marc-Olivier Méhu
Soutien technique & logistique : Manuel Goepfert

Contact : metmap@orbifly.com




SOURCES & CREDITS :

   NOAA